NEW EXCHEQUER-LK MCCLURE (EXC)

Elevation: 879' · MERCED R basin · Operator: Merced Irrigation District

Provisional data, subject to change.
Query executed Sunday at 17:18:11   clock

Select a sensor type for a plot of data.
Note: Reservoir Flows are daily averages.

Earlier

Date RES ELE    STORAGE    RES CHG    TOC STO    ABV TOC    OUTFLOW    INFLOW    PPT INC    TEMP MN    TEMP MX    TEMP AV   
 FEET   AF   AF   AF   AF   CFS   CFS   INCHES   DEG F   DEG F   DEG F  
07/03/2015 632.24 125284 -1552 1012632 -887348 852 61 0.00 -- -- --
07/04/2015 631.39 123924 -1296 1012538 -888614 832 146 0.00 -- -- --
07/05/2015 630.85 123060 -1008 1012441 -889381 577 141 0.00 -- -- --
07/06/2015 629.89 121535 -- 1012141 -890606 785 16 0.00 -- -- --
07/07/2015 629.15 120425 -930 1012067 -891642 709 149 0.00 -- -- --
07/08/2015 628.42 119330 -1185 1011880 -892550 632 80 0.00 -- -- --
07/09/2015 627.61 118115 -1110 1011668 -893553 676 63 0.01 -- -- --
07/10/2015 626.52 116480 -1635 1011555 -895075 943 119 0.00 -- -- --
07/11/2015 625.88 115520 -1065 1010796 -895276 636 152 0.00 -- -- --
07/12/2015 626.02 115730 90 1010005 -894275 25 131 0.00 -- -- --
07/13/2015 625.77 115355 -540 1009223 -893868 322 133 0.00 -- -- --
07/14/2015 625.26 114590 -885 1008344 -- 462 77 0.00 -- -- --
07/15/2015 625.37 114755 30 1007525 -892770 25 108 0.00 -- -- --
07/16/2015 624.93 114095 -780 1006614 -892519 389 56 0.00 -- -- --
07/17/2015 624.52 113480 -660 1005631 -892151 327 17 0.00 -- -- --
07/18/2015 624.02 112730 -780 1004643 -891913 392 14 0.00 -- -- --
07/19/2015 623.76 112340 -480 1003777 -891437 274 77 0.00 -- -- --
07/20/2015 623.27 111605 -780 1002765 -891160 368 0 0.00 -- -- --
07/21/2015 623.04 111260 -480 1001917 -890657 258 84 0.00 -- -- --
07/22/2015 623.22 111530 -195 1001793 -890263 311 447 0.00 -- -- --
07/23/2015 623.48 111920 60 1001690 -889770 252 449 0.00 -- -- --
07/24/2015 623.56 112040 -150 1001342 -889302 258 319 0.00 -- -- --
07/25/2015 623.50 111950 -300 1000799 -888849 262 217 0.00 -- -- --
07/26/2015 623.37 111755 -360 1000130 -888375 250 152 0.00 -- -- --
07/27/2015 623.18 111470 -420 1003821 -892351 264 121 0.00 -- -- --
07/28/2015 622.90 111050 -555 1009016 -897966 300 88 0.00 -- -- --
07/29/2015 622.59 110585 -585 1014210 -903625 303 69 0.00 -- -- --
07/30/2015 622.27 110105 -540 1019405 -909300 278 36 0.00 -- -- --
07/31/2015 621.97 109655 -525 1024600 -914945 198 0 0.00 -- -- --
08/01/2015 621.68 109220 -495 1024600 -915380 330 111 0.00 -- -- --
08/02/2015 -- -- -- -- -- -- -- -- -- -- --

Later | Latest

Warning! This data is preliminary and subject to revision.

Show EXC Map | Plot EXC Data | 1 Month EXC Data | Real-Time EXC Data | EXC Info